createdAt,value
2018-05-02T00:01:50.626Z,70.00
2018-05-02T00:04:17.581Z,70.10
2018-05-02T00:06:44.429Z,70.30
2018-05-02T00:09:11.287Z,70.60
2018-05-02T00:11:38.129Z,70.50
2018-05-02T00:14:05.390Z,70.80
2018-05-02T00:16:32.622Z,70.60
2018-05-02T00:18:59.553Z,70.60
2018-05-02T00:21:26.410Z,70.50
2018-05-02T00:23:53.313Z,70.60
2018-05-02T00:26:20.198Z,70.50
2018-05-02T00:28:47.433Z,70.80
2018-05-02T00:31:14.336Z,70.80
2018-05-02T00:33:41.183Z,71.30
2018-05-02T00:36:08.026Z,71.60
2018-05-02T00:38:35.331Z,72.00
2018-05-02T00:41:02.191Z,72.00
2018-05-02T00:43:29.047Z,72.40
2018-05-02T00:45:55.901Z,72.50
2018-05-02T00:48:22.885Z,72.80
2018-05-02T00:50:49.902Z,73.10
2018-05-02T00:53:16.740Z,73.20
2018-05-02T00:55:43.965Z,73.20
2018-05-02T00:58:10.884Z,73.10
2018-05-02T01:00:37.950Z,73.20
2018-05-02T01:03:04.793Z,72.80
2018-05-02T01:05:31.632Z,72.40
2018-05-02T01:07:58.977Z,72.00
2018-05-02T01:10:25.868Z,72.00
2018-05-02T01:12:52.765Z,72.30
2018-05-02T01:15:19.626Z,72.20
2018-05-02T01:17:46.488Z,72.10
2018-05-02T01:20:13.327Z,72.40
2018-05-02T01:22:40.276Z,72.50
2018-05-02T01:25:07.131Z,72.90
2018-05-02T01:27:33.986Z,72.90
2018-05-02T01:30:00.876Z,73.20
2018-05-02T01:32:27.726Z,72.70
2018-05-02T01:34:54.607Z,72.80
2018-05-02T01:37:21.515Z,72.90
2018-05-02T01:39:48.375Z,72.80
2018-05-02T01:42:15.230Z,72.20
2018-05-02T01:44:42.091Z,72.40
2018-05-02T01:47:08.940Z,72.60
2018-05-02T01:49:35.826Z,72.80
2018-05-02T01:52:02.699Z,72.70
2018-05-02T01:54:29.624Z,72.70
2018-05-02T01:56:56.491Z,73.00
2018-05-02T01:59:23.452Z,72.90
2018-05-02T02:01:50.304Z,73.20
2018-05-02T02:04:17.245Z,73.10
2018-05-02T02:06:44.095Z,73.00
2018-05-02T02:09:10.985Z,73.20
2018-05-02T02:11:37.828Z,73.30
2018-05-02T02:14:04.741Z,73.70
2018-05-02T02:16:31.990Z,73.90
2018-05-02T02:18:58.909Z,73.90
2018-05-02T02:21:25.771Z,73.60
2018-05-02T02:23:52.750Z,74.00
2018-05-02T02:26:19.619Z,74.60
2018-05-02T02:28:46.478Z,74.60
2018-05-02T02:31:13.400Z,74.50
2018-05-02T02:33:40.270Z,74.60
2018-05-02T02:36:07.125Z,75.00
2018-05-02T02:38:33.999Z,75.10
2018-05-02T02:41:00.930Z,75.10
2018-05-02T02:43:27.807Z,75.20
2018-05-02T02:45:54.664Z,75.10
2018-05-02T02:48:21.661Z,75.20
2018-05-02T02:50:48.559Z,75.20
2018-05-02T02:53:15.403Z,75.20
2018-05-02T02:55:42.275Z,75.50
2018-05-02T02:58:09.139Z,75.80
2018-05-02T03:00:36.009Z,76.30
2018-05-02T03:03:02.844Z,76.20
2018-05-02T03:05:29.734Z,76.00
2018-05-02T03:07:56.668Z,75.80
2018-05-02T03:10:23.531Z,75.50
2018-05-02T03:12:50.490Z,75.40
2018-05-02T03:15:17.378Z,75.80
2018-05-02T03:17:44.300Z,76.00
2018-05-02T03:20:11.253Z,76.10
2018-05-02T03:22:38.106Z,76.00
2018-05-02T03:25:04.966Z,76.00
2018-05-02T03:27:31.951Z,76.60
2018-05-02T03:29:58.888Z,76.80
2018-05-02T03:32:25.729Z,77.10
2018-05-02T03:34:52.652Z,77.10
2018-05-02T03:37:19.497Z,76.60
2018-05-02T03:39:46.429Z,76.40
2018-05-02T03:42:13.261Z,76.30
2018-05-02T03:44:40.228Z,76.20
2018-05-02T03:47:07.086Z,76.20
2018-05-02T03:49:34.051Z,76.20
2018-05-02T03:52:00.906Z,76.20
2018-05-02T03:54:27.768Z,76.30
2018-05-02T03:56:54.618Z,76.30
2018-05-02T03:59:33.346Z,76.50
2018-05-02T04:02:11.963Z,76.60
2018-05-02T04:07:37.269Z,77.00
2018-05-02T04:10:04.206Z,77.10
2018-05-02T04:12:31.070Z,76.90
2018-05-02T04:14:58.033Z,76.80
2018-05-02T04:17:25.014Z,76.60
2018-05-02T04:19:51.875Z,76.30
2018-05-02T04:22:18.806Z,76.10
2018-05-02T04:24:45.664Z,75.90
2018-05-02T04:27:13.417Z,76.10
2018-05-02T04:29:40.656Z,76.40
2018-05-02T04:32:07.520Z,76.40
2018-05-02T04:34:34.453Z,76.20
2018-05-02T04:37:01.285Z,76.40
2018-05-02T04:39:28.206Z,76.30
2018-05-02T04:41:55.454Z,76.70
2018-05-02T04:44:22.328Z,76.70
2018-05-02T04:46:49.590Z,76.20
2018-05-02T04:49:16.836Z,76.00
2018-05-02T04:51:43.749Z,76.00
2018-05-02T04:54:10.594Z,75.90
2018-05-02T04:56:37.468Z,75.70
2018-05-02T04:59:04.326Z,75.50
2018-05-02T05:01:31.173Z,75.40
2018-05-02T05:03:58.052Z,75.50
2018-05-02T05:06:25.014Z,75.50
2018-05-02T05:08:52.270Z,75.70
2018-05-02T05:11:19.211Z,75.70
2018-05-02T05:13:46.797Z,75.40
2018-05-02T05:16:13.607Z,75.40
2018-05-02T05:18:40.504Z,75.40
2018-05-02T05:21:07.347Z,75.60
2018-05-02T05:23:34.202Z,75.50
2018-05-02T05:26:01.515Z,75.20
2018-05-02T05:28:28.464Z,75.20
2018-05-02T05:30:55.407Z,73.80
2018-05-02T05:33:22.298Z,74.10
2018-05-02T05:35:49.230Z,74.70
2018-05-02T05:38:16.091Z,73.70
2018-05-02T05:40:42.942Z,74.00
2018-05-02T05:43:09.795Z,73.70
2018-05-02T05:45:36.659Z,73.60
2018-05-02T05:48:03.499Z,73.80
2018-05-02T05:50:30.415Z,73.60
2018-05-02T05:52:57.329Z,73.50
2018-05-02T05:55:24.193Z,72.50
2018-05-02T05:57:51.048Z,71.70
2018-05-02T06:00:17.914Z,71.90
2018-05-02T06:02:44.785Z,71.70
2018-05-02T06:05:11.682Z,71.70
2018-05-02T06:07:38.492Z,72.20
2018-05-02T06:10:05.339Z,71.40
2018-05-02T06:12:32.183Z,71.00
2018-05-02T06:14:59.046Z,70.90
2018-05-02T06:17:25.888Z,70.70
2018-05-02T06:19:52.817Z,70.40
2018-05-02T06:22:19.744Z,69.20
2018-05-02T06:24:46.597Z,68.90
2018-05-02T06:27:13.530Z,67.90
2018-05-02T06:29:40.472Z,67.60
2018-05-02T06:32:07.758Z,67.30
2018-05-02T06:34:35.610Z,67.30
2018-05-02T06:37:02.964Z,65.70
2018-05-02T06:39:30.236Z,64.70
2018-05-02T06:41:57.083Z,64.70
2018-05-02T06:44:23.987Z,64.50
2018-05-02T06:46:50.943Z,64.20
2018-05-02T06:49:17.907Z,64.40
2018-05-02T06:51:44.676Z,63.90
2018-05-02T06:54:11.529Z,63.60
2018-05-02T06:56:38.404Z,63.10
2018-05-02T06:59:05.262Z,62.60
2018-05-02T07:01:32.187Z,62.20
2018-05-02T07:03:59.064Z,62.40
2018-05-02T07:06:25.917Z,63.00
2018-05-02T07:08:53.054Z,63.70
2018-05-02T07:11:20.349Z,63.90
2018-05-02T07:13:47.180Z,63.90
2018-05-02T07:16:14.094Z,64.00
2018-05-02T07:18:41.066Z,63.60
2018-05-02T07:21:07.952Z,64.00
2018-05-02T07:23:35.200Z,64.20
2018-05-02T07:26:02.532Z,64.10
2018-05-02T07:28:29.467Z,64.10
2018-05-02T07:30:56.364Z,63.90
2018-05-02T07:33:23.253Z,63.90
2018-05-02T07:35:50.508Z,62.90
2018-05-02T07:38:17.894Z,62.00
2018-05-02T07:40:45.174Z,61.30
2018-05-02T07:43:12.024Z,61.30
2018-05-02T07:45:38.978Z,60.80
2018-05-02T07:48:06.195Z,60.70
2018-05-02T07:50:33.203Z,60.70
2018-05-02T07:53:00.051Z,59.60
2018-05-02T07:55:27.359Z,60.10
2018-05-02T07:57:54.221Z,60.10
2018-05-02T08:00:21.245Z,59.60
2018-05-02T08:02:48.495Z,59.40
2018-05-02T08:05:15.726Z,59.80
2018-05-02T08:07:42.571Z,59.80
2018-05-02T08:10:09.431Z,60.40
2018-05-02T08:12:36.278Z,60.80
2018-05-02T08:15:03.139Z,60.60
2018-05-02T08:17:30.036Z,60.70
2018-05-02T08:19:57.289Z,59.70
2018-05-02T08:22:24.189Z,59.70
2018-05-02T08:24:51.021Z,58.50
2018-05-02T08:27:18.344Z,59.00
2018-05-02T08:29:45.135Z,59.00
2018-05-02T08:32:11.991Z,58.80
2018-05-02T08:34:38.817Z,57.30
2018-05-02T08:37:05.686Z,56.80
2018-05-02T08:39:32.597Z,57.40
2018-05-02T08:41:59.465Z,56.00
2018-05-02T08:44:26.460Z,56.00
2018-05-02T08:46:53.372Z,56.10
2018-05-02T08:49:20.790Z,54.60
2018-05-02T08:51:48.067Z,54.60
2018-05-02T08:54:14.920Z,54.60
2018-05-02T08:56:41.773Z,54.80
2018-05-02T08:59:08.647Z,54.80
2018-05-02T09:01:35.986Z,54.40
2018-05-02T09:04:02.927Z,54.40
2018-05-02T09:06:29.802Z,54.20
2018-05-02T09:08:56.681Z,53.00
2018-05-02T09:11:23.590Z,52.90
2018-05-02T09:13:50.465Z,52.50
2018-05-02T09:16:17.494Z,52.80
2018-05-02T09:18:44.377Z,52.80
2018-05-02T09:21:11.270Z,53.30
2018-05-02T09:23:38.131Z,53.40
2018-05-02T09:26:04.973Z,52.90
2018-05-02T09:28:31.858Z,52.30
2018-05-02T09:30:59.108Z,52.10
2018-05-02T09:33:25.984Z,52.20
2018-05-02T09:35:53.252Z,52.00
2018-05-02T09:38:20.642Z,52.20
2018-05-02T09:40:47.595Z,52.20
2018-05-02T09:43:14.817Z,55.10
2018-05-02T09:45:41.645Z,55.10
2018-05-02T09:48:08.587Z,52.60
2018-05-02T09:50:35.537Z,51.50
2018-05-02T09:53:02.499Z,51.80
2018-05-02T09:55:29.362Z,52.00
2018-05-02T09:57:56.334Z,52.60
2018-05-02T10:00:23.191Z,51.10
2018-05-02T10:02:50.046Z,50.50
2018-05-02T10:05:16.992Z,50.10
2018-05-02T10:07:43.960Z,50.50
2018-05-02T10:10:10.809Z,50.40
2018-05-02T10:12:37.651Z,51.40
2018-05-02T10:15:04.543Z,51.60
2018-05-02T10:17:31.412Z,50.80
2018-05-02T10:19:58.330Z,51.30
2018-05-02T10:22:25.287Z,51.60
2018-05-02T10:24:52.589Z,50.90
2018-05-02T10:27:19.613Z,50.90
2018-05-02T10:29:46.527Z,50.70
2018-05-02T10:32:13.408Z,50.20
2018-05-02T10:34:40.704Z,50.60
2018-05-02T10:37:08.511Z,50.60
2018-05-02T10:39:35.348Z,50.40
2018-05-02T10:42:02.248Z,50.10
2018-05-02T10:44:29.135Z,49.60
2018-05-02T10:46:56.413Z,49.80
2018-05-02T10:49:23.279Z,49.80
2018-05-02T10:51:50.181Z,49.40
2018-05-02T10:54:17.043Z,49.10
2018-05-02T10:56:43.891Z,49.40
2018-05-02T10:59:10.739Z,49.80
2018-05-02T11:01:37.657Z,50.00
2018-05-02T11:04:04.621Z,50.40
2018-05-02T11:06:31.456Z,50.70
2018-05-02T11:08:58.717Z,49.00
2018-05-02T11:11:25.954Z,49.30
2018-05-02T11:13:52.870Z,49.30
2018-05-02T11:16:19.718Z,48.90
2018-05-02T11:18:46.581Z,48.40
2018-05-02T11:21:13.433Z,48.80
2018-05-02T11:23:40.281Z,49.80
2018-05-02T11:26:07.156Z,49.40
2018-05-02T11:28:34.127Z,49.80
2018-05-02T11:31:01.182Z,49.20
2018-05-02T11:33:28.129Z,47.70
2018-05-02T11:35:55.396Z,47.80
2018-05-02T11:38:22.566Z,47.80
2018-05-02T11:40:49.413Z,47.80
2018-05-02T11:43:16.350Z,47.30
2018-05-02T11:45:43.601Z,47.90
2018-05-02T11:48:10.617Z,47.90
2018-05-02T11:50:37.524Z,47.60
2018-05-02T11:53:04.421Z,48.40
2018-05-02T11:55:31.319Z,48.00
2018-05-02T11:57:58.180Z,48.40
2018-05-02T12:00:25.154Z,48.70
2018-05-02T12:02:51.993Z,48.50
2018-05-02T12:05:18.924Z,48.00
2018-05-02T12:07:45.833Z,47.90
2018-05-02T12:10:12.698Z,48.50
2018-05-02T12:12:39.986Z,46.20
2018-05-02T12:15:06.830Z,46.20
2018-05-02T12:17:34.110Z,47.60
2018-05-02T12:20:00.959Z,47.60
2018-05-02T12:22:27.843Z,47.60
2018-05-02T12:24:54.757Z,48.00
2018-05-02T12:27:21.675Z,48.40
2018-05-02T12:29:48.587Z,48.80
2018-05-02T12:32:15.868Z,47.80
2018-05-02T12:34:42.731Z,47.80
2018-05-02T12:37:09.585Z,47.60
2018-05-02T12:39:36.495Z,47.40
2018-05-02T12:42:03.364Z,47.80
2018-05-02T12:44:30.289Z,46.80
2018-05-02T12:46:57.191Z,47.70
2018-05-02T12:49:24.479Z,48.00
2018-05-02T12:51:51.447Z,48.00
2018-05-02T12:54:18.403Z,47.30
2018-05-02T12:56:45.634Z,47.10
2018-05-02T12:59:12.495Z,47.10
2018-05-02T13:01:44.639Z,46.70
2018-05-02T13:04:11.563Z,46.70
2018-05-02T13:06:38.428Z,47.80
2018-05-02T13:09:05.269Z,48.00
2018-05-02T13:11:32.231Z,47.80
2018-05-02T13:13:59.004Z,48.00
2018-05-02T13:16:25.878Z,46.80
2018-05-02T13:18:53.030Z,47.60
2018-05-02T13:21:19.973Z,48.00
2018-05-02T13:23:47.223Z,48.00
2018-05-02T13:26:14.092Z,48.00
2018-05-02T13:28:40.950Z,48.50
2018-05-02T13:31:07.830Z,48.70
2018-05-02T13:33:34.723Z,49.00
2018-05-02T13:36:01.582Z,48.70
2018-05-02T13:38:28.494Z,50.00
2018-05-02T13:40:55.339Z,48.70
2018-05-02T13:43:22.216Z,48.40
2018-05-02T13:45:49.195Z,48.20
2018-05-02T13:48:16.140Z,48.30
2018-05-02T13:50:42.986Z,47.20
2018-05-02T13:53:09.851Z,47.10
2018-05-02T13:55:36.782Z,47.10
2018-05-02T13:58:03.543Z,46.90
2018-05-02T14:00:30.393Z,46.20
2018-05-02T14:02:57.272Z,46.60
2018-05-02T14:05:24.123Z,48.30
2018-05-02T14:07:50.987Z,47.90
2018-05-02T14:10:17.874Z,47.20
2018-05-02T14:12:44.695Z,47.60
2018-05-02T14:15:11.539Z,47.90
2018-05-02T14:17:38.533Z,48.00
2018-05-02T14:20:05.369Z,47.60
2018-05-02T14:22:32.254Z,47.70
2018-05-02T14:24:59.299Z,47.50
2018-05-02T14:27:26.166Z,47.40
2018-05-02T14:29:53.045Z,46.40
2018-05-02T14:32:19.890Z,46.30
2018-05-02T14:34:46.818Z,46.60
2018-05-02T14:37:13.767Z,47.10
2018-05-02T14:39:40.722Z,46.50
2018-05-02T14:42:07.926Z,45.40
2018-05-02T14:44:34.860Z,45.40
2018-05-02T14:47:01.703Z,45.40
2018-05-02T14:49:28.566Z,45.10
2018-05-02T14:51:55.412Z,45.00
2018-05-02T14:54:22.261Z,45.00
2018-05-02T14:56:49.134Z,45.60
2018-05-02T14:59:15.995Z,45.40
2018-05-02T15:01:42.854Z,44.90
2018-05-02T15:04:09.714Z,44.40
2018-05-02T15:06:36.569Z,45.10
2018-05-02T15:09:03.483Z,45.80
2018-05-02T15:11:30.782Z,45.70
2018-05-02T15:13:57.668Z,45.70
2018-05-02T15:16:24.568Z,45.50
2018-05-02T15:18:51.794Z,46.10
2018-05-02T15:21:18.657Z,46.10
2018-05-02T15:23:45.494Z,46.10
2018-05-02T15:26:12.347Z,45.60
2018-05-02T15:28:39.183Z,45.80
2018-05-02T15:31:06.078Z,46.30
2018-05-02T15:33:32.950Z,46.20
2018-05-02T15:35:59.778Z,46.60
2018-05-02T15:38:26.730Z,46.60
2018-05-02T15:40:53.637Z,46.60
2018-05-02T15:43:20.480Z,47.00
2018-05-02T15:45:47.405Z,47.10
2018-05-02T15:48:14.235Z,46.40
2018-05-02T15:50:41.222Z,46.10
2018-05-02T15:53:08.084Z,46.40
2018-05-02T15:55:34.942Z,46.40
2018-05-02T15:58:01.844Z,46.60
2018-05-02T16:00:28.648Z,46.30
2018-05-02T16:02:55.510Z,46.80
2018-05-02T16:05:22.383Z,47.40
2018-05-02T16:07:49.226Z,47.40
2018-05-02T16:10:16.088Z,47.10
2018-05-02T16:12:42.930Z,47.00
2018-05-02T16:15:09.823Z,46.70
2018-05-02T16:17:36.796Z,46.60
2018-05-02T16:20:03.807Z,46.60
2018-05-02T16:22:30.693Z,46.70
2018-05-02T16:24:57.552Z,46.50
2018-05-02T16:27:24.543Z,46.80
2018-05-02T16:29:51.373Z,47.30
2018-05-02T16:32:18.311Z,47.20
2018-05-02T16:34:45.192Z,47.50
2018-05-02T16:37:12.097Z,48.10
2018-05-02T16:39:38.991Z,48.40
2018-05-02T16:42:05.944Z,48.30
2018-05-02T16:44:32.887Z,48.30
2018-05-02T16:46:59.731Z,48.30
2018-05-02T16:49:26.711Z,48.40
2018-05-02T16:51:53.650Z,48.30
2018-05-02T16:54:20.623Z,48.20
2018-05-02T16:56:47.466Z,48.30
2018-05-02T16:59:14.325Z,48.20
2018-05-02T17:01:41.188Z,48.70
2018-05-02T17:04:08.232Z,48.90
2018-05-02T17:06:35.095Z,49.00
2018-05-02T17:09:02.007Z,49.00
2018-05-02T17:11:28.881Z,49.00
2018-05-02T17:13:55.757Z,49.30
2018-05-02T17:16:22.630Z,49.20
2018-05-02T17:18:49.585Z,49.10
2018-05-02T17:21:16.431Z,49.20
2018-05-02T17:23:43.295Z,50.40
2018-05-02T17:26:10.135Z,50.50
2018-05-02T17:28:37.389Z,50.60
2018-05-02T17:31:04.628Z,50.50
2018-05-02T17:33:31.481Z,50.50
2018-05-02T17:35:58.313Z,50.20
2018-05-02T17:38:25.264Z,49.60
2018-05-02T17:40:52.146Z,49.50
2018-05-02T17:43:19.390Z,50.00
2018-05-02T17:45:46.259Z,50.00
2018-05-02T17:48:13.103Z,50.00
2018-05-02T17:50:40.252Z,50.00
2018-05-02T17:53:07.575Z,50.20
2018-05-02T17:55:34.498Z,50.20
2018-05-02T17:58:01.354Z,50.40
2018-05-02T18:00:28.308Z,51.40
2018-05-02T18:02:55.172Z,51.80
2018-05-02T18:05:22.048Z,51.90
2018-05-02T18:07:48.996Z,52.40
2018-05-02T18:10:16.087Z,52.60
2018-05-02T18:12:42.980Z,53.00
2018-05-02T18:15:10.235Z,55.00
2018-05-02T18:17:37.547Z,55.70
2018-05-02T18:20:04.433Z,55.70
2018-05-02T18:22:31.273Z,56.10
2018-05-02T18:24:58.219Z,56.20
2018-05-02T18:27:25.064Z,56.10
2018-05-02T18:29:51.941Z,55.90
2018-05-02T18:32:18.898Z,56.30
2018-05-02T18:34:45.749Z,57.00
2018-05-02T18:37:12.710Z,58.10
2018-05-02T18:39:39.560Z,58.40
2018-05-02T18:42:06.411Z,59.30
2018-05-02T18:44:33.387Z,58.90
2018-05-02T18:47:00.275Z,58.40
2018-05-02T18:49:27.139Z,57.70
2018-05-02T18:51:54.022Z,57.20
2018-05-02T18:54:21.330Z,56.90
2018-05-02T18:56:48.186Z,56.90
2018-05-02T18:59:15.039Z,57.10
2018-05-02T19:01:41.898Z,57.40
2018-05-02T19:04:08.845Z,57.80
2018-05-02T19:06:35.798Z,58.20
2018-05-02T19:09:02.652Z,58.40
2018-05-02T19:11:29.521Z,58.80
2018-05-02T19:13:56.364Z,58.50
2018-05-02T19:16:23.233Z,59.40
2018-05-02T19:18:50.103Z,59.50
2018-05-02T19:21:16.950Z,58.90
2018-05-02T19:23:43.893Z,59.30
2018-05-02T19:26:10.771Z,59.40
2018-05-02T19:28:37.718Z,59.80
2018-05-02T19:31:04.599Z,59.70
2018-05-02T19:33:31.435Z,59.60
2018-05-02T19:35:58.314Z,59.80
2018-05-02T19:38:25.278Z,60.40
2018-05-02T19:40:52.435Z,60.70
2018-05-02T19:43:19.459Z,60.70
2018-05-02T19:45:46.678Z,61.50
2018-05-02T19:48:13.555Z,61.50
2018-05-02T19:50:41.065Z,61.60
2018-05-02T19:53:07.977Z,61.60
2018-05-02T19:55:34.890Z,61.70
2018-05-02T19:58:01.749Z,61.90
2018-05-02T20:00:28.631Z,62.20
2018-05-02T20:02:55.500Z,61.70
2018-05-02T20:05:22.382Z,62.20
2018-05-02T20:07:49.231Z,62.70
2018-05-02T20:10:16.114Z,62.50
2018-05-02T20:12:43.380Z,62.70
2018-05-02T20:15:10.632Z,63.10
2018-05-02T20:17:37.941Z,63.20
2018-05-02T20:20:05.500Z,63.20
2018-05-02T20:22:32.784Z,63.10
2018-05-02T20:24:59.665Z,63.10
2018-05-02T20:27:26.894Z,63.10
2018-05-02T20:29:53.979Z,63.10
2018-05-02T20:32:20.818Z,63.00
2018-05-02T20:34:47.718Z,62.90
2018-05-02T20:37:14.554Z,63.00
2018-05-02T20:39:41.401Z,63.00
2018-05-02T20:42:08.345Z,62.90
2018-05-02T20:44:35.191Z,63.20
2018-05-02T20:47:02.066Z,63.30
2018-05-02T20:49:29.042Z,63.20
2018-05-02T20:51:55.872Z,63.20
2018-05-02T20:54:22.860Z,63.30
2018-05-02T20:56:49.857Z,62.80
2018-05-02T20:59:16.759Z,63.00
2018-05-02T21:01:43.606Z,63.00
2018-05-02T21:04:10.499Z,63.10
2018-05-02T21:06:37.435Z,63.10
2018-05-02T21:09:05.024Z,62.90
2018-05-02T21:11:31.974Z,63.10
2018-05-02T21:13:58.892Z,63.10
2018-05-02T21:16:26.185Z,62.40
2018-05-02T21:18:53.055Z,62.40
2018-05-02T21:21:20.013Z,62.30
2018-05-02T21:23:47.328Z,62.60
2018-05-02T21:26:14.232Z,62.60
2018-05-02T21:28:41.091Z,63.10
2018-05-02T21:31:07.958Z,63.10
2018-05-02T21:33:34.803Z,62.80
2018-05-02T21:36:01.659Z,62.70
2018-05-02T21:38:28.510Z,63.00
2018-05-02T21:40:55.465Z,62.80
2018-05-02T21:43:22.298Z,62.60
2018-05-02T21:45:49.555Z,62.30
2018-05-02T21:48:16.859Z,62.50
2018-05-02T21:50:43.700Z,62.50
2018-05-02T21:53:10.554Z,62.50
2018-05-02T21:55:37.400Z,62.80
2018-05-02T21:58:04.738Z,62.90
2018-05-02T22:00:31.687Z,62.90
2018-05-02T22:02:58.616Z,63.40
2018-05-02T22:05:25.670Z,64.00
2018-05-02T22:07:52.703Z,63.70
2018-05-02T22:10:19.963Z,63.90
2018-05-02T22:12:46.810Z,64.00
2018-05-02T22:15:13.726Z,64.00
2018-05-02T22:17:40.572Z,63.90
2018-05-02T22:20:07.439Z,64.20
2018-05-02T22:22:34.274Z,63.90
2018-05-02T22:25:01.166Z,64.00
2018-05-02T22:27:28.040Z,63.60
2018-05-02T22:29:54.917Z,64.50
2018-05-02T22:32:21.776Z,64.80
2018-05-02T22:34:48.614Z,65.20
2018-05-02T22:37:15.566Z,65.20
2018-05-02T22:39:42.501Z,65.10
2018-05-02T22:42:09.359Z,65.70
2018-05-02T22:44:36.207Z,65.60
2018-05-02T22:47:03.066Z,65.50
2018-05-02T22:49:29.937Z,65.70
2018-05-02T22:51:56.785Z,65.60
2018-05-02T22:54:23.636Z,65.80
2018-05-02T22:56:50.484Z,66.10
2018-05-02T22:59:17.338Z,66.40
2018-05-02T23:01:44.194Z,66.70
2018-05-02T23:04:11.046Z,67.10
2018-05-02T23:06:37.907Z,66.90
2018-05-02T23:09:05.206Z,67.60
2018-05-02T23:11:32.152Z,67.60
2018-05-02T23:13:59.036Z,67.80
2018-05-02T23:16:25.894Z,68.00
2018-05-02T23:18:52.759Z,68.30
2018-05-02T23:21:19.604Z,68.20
2018-05-02T23:23:46.444Z,68.20
2018-05-02T23:26:13.438Z,67.70
2018-05-02T23:28:40.353Z,68.60
2018-05-02T23:31:07.308Z,68.50
2018-05-02T23:33:34.162Z,68.20
2018-05-02T23:36:01.393Z,68.80
2018-05-02T23:38:28.298Z,68.80
2018-05-02T23:40:55.147Z,68.70
2018-05-02T23:43:22.111Z,68.00
2018-05-02T23:45:48.975Z,68.40
2018-05-02T23:48:15.926Z,68.70
2018-05-02T23:50:42.758Z,68.90
2018-05-02T23:53:10.038Z,69.40
2018-05-02T23:55:36.895Z,69.40
2018-05-02T23:58:03.771Z,68.70
